createdAt,value
2018-05-31T00:00:16.528Z,17.40
2018-05-31T00:01:16.558Z,17.50
2018-05-31T00:02:16.568Z,16.80
2018-05-31T00:03:16.595Z,17.30
2018-05-31T00:04:16.617Z,17.20
2018-05-31T00:05:16.642Z,18.20
2018-05-31T00:06:16.664Z,17.40
2018-05-31T00:07:16.680Z,17.40
2018-05-31T00:08:16.704Z,17.20
2018-05-31T00:09:16.728Z,17.10
2018-05-31T00:10:16.748Z,16.90
2018-05-31T00:11:16.768Z,16.90
2018-05-31T00:12:16.788Z,18.10
2018-05-31T00:13:16.817Z,17.50
2018-05-31T00:14:16.831Z,16.90
2018-05-31T00:15:16.874Z,17.50
2018-05-31T00:16:16.877Z,17.20
2018-05-31T00:17:16.898Z,17.20
2018-05-31T00:18:16.922Z,17.40
2018-05-31T00:19:16.950Z,16.80
2018-05-31T00:20:16.968Z,16.90
2018-05-31T00:21:16.988Z,17.10
2018-05-31T00:22:17.006Z,17.50
2018-05-31T00:23:17.028Z,18.60
2018-05-31T00:24:17.053Z,17.50
2018-05-31T00:25:17.071Z,18.10
2018-05-31T00:26:17.094Z,18.10
2018-05-31T00:27:17.116Z,18.50
2018-05-31T00:28:17.140Z,18.30
2018-05-31T00:29:17.158Z,17.70
2018-05-31T00:30:17.188Z,16.90
2018-05-31T00:31:17.202Z,17.90
2018-05-31T00:32:17.224Z,18.10
2018-05-31T00:33:17.249Z,18.70
2018-05-31T00:34:17.280Z,17.80
2018-05-31T00:35:17.283Z,17.40
2018-05-31T00:36:17.313Z,17.80
2018-05-31T00:37:17.335Z,17.10
2018-05-31T00:38:17.354Z,17.90
2018-05-31T00:39:17.371Z,16.80
2018-05-31T00:40:17.402Z,17.80
2018-05-31T00:41:17.419Z,17.30
2018-05-31T00:42:17.439Z,17.60
2018-05-31T00:43:17.462Z,17.60
2018-05-31T00:44:17.484Z,18.20
2018-05-31T00:45:17.514Z,17.00
2018-05-31T00:46:17.546Z,15.90
2018-05-31T00:47:17.545Z,16.80
2018-05-31T00:48:17.565Z,17.70
2018-05-31T00:49:17.588Z,17.40
2018-05-31T00:50:17.613Z,16.80
2018-05-31T00:51:17.635Z,17.00
2018-05-31T00:52:17.661Z,15.80
2018-05-31T00:53:17.673Z,16.00
2018-05-31T00:54:17.701Z,17.40
2018-05-31T00:55:17.716Z,17.60
2018-05-31T00:56:17.741Z,17.40
2018-05-31T00:57:17.762Z,17.80
2018-05-31T00:58:17.798Z,16.80
2018-05-31T00:59:17.807Z,17.50
2018-05-31T01:00:17.847Z,17.20
2018-05-31T01:01:17.845Z,16.60
2018-05-31T01:02:17.876Z,17.70
2018-05-31T01:03:17.893Z,17.40
2018-05-31T01:04:17.923Z,16.90
2018-05-31T01:05:17.935Z,17.20
2018-05-31T01:06:17.958Z,17.50
2018-05-31T01:07:17.978Z,17.40
2018-05-31T01:08:17.995Z,17.80
2018-05-31T01:09:18.018Z,17.20
2018-05-31T01:10:18.041Z,15.30
2018-05-31T01:11:18.071Z,16.20
2018-05-31T01:12:18.090Z,15.80
2018-05-31T01:13:18.103Z,16.50
2018-05-31T01:14:18.128Z,16.70
2018-05-31T01:15:18.147Z,16.60
2018-05-31T01:16:18.168Z,16.80
2018-05-31T01:17:18.195Z,16.60
2018-05-31T01:18:18.214Z,16.40
2018-05-31T01:19:18.237Z,15.60
2018-05-31T01:20:18.268Z,16.70
2018-05-31T01:21:18.275Z,17.10
2018-05-31T01:22:18.298Z,16.60
2018-05-31T01:23:18.320Z,17.00
2018-05-31T01:24:18.344Z,16.10
2018-05-31T01:25:18.368Z,17.40
2018-05-31T01:26:18.385Z,17.90
2018-05-31T01:27:18.405Z,16.90
2018-05-31T01:28:18.427Z,16.90
2018-05-31T01:29:18.456Z,16.60
2018-05-31T01:30:18.475Z,17.30
2018-05-31T01:31:18.487Z,17.00
2018-05-31T01:32:18.511Z,16.60
2018-05-31T01:33:18.542Z,17.10
2018-05-31T01:34:18.578Z,16.30
2018-05-31T01:35:18.578Z,17.40
2018-05-31T01:36:18.596Z,16.80
2018-05-31T01:37:18.618Z,17.60
2018-05-31T01:38:18.642Z,17.40
2018-05-31T01:39:18.680Z,17.10
2018-05-31T01:40:18.689Z,17.70
2018-05-31T01:41:18.702Z,17.60
2018-05-31T01:42:18.732Z,17.90
2018-05-31T01:43:18.747Z,16.50
2018-05-31T01:44:18.768Z,17.20
2018-05-31T01:45:18.790Z,17.30
2018-05-31T01:46:18.817Z,19.10
2018-05-31T01:47:18.832Z,18.50
2018-05-31T01:48:18.862Z,17.70
2018-05-31T01:49:18.881Z,16.90
2018-05-31T01:50:18.899Z,16.80
2018-05-31T01:51:18.922Z,16.30
2018-05-31T01:52:18.979Z,16.90
2018-05-31T01:53:18.968Z,16.90
2018-05-31T01:54:18.984Z,16.50
2018-05-31T01:55:19.002Z,15.60
2018-05-31T01:56:19.037Z,14.20
2018-05-31T01:57:19.051Z,13.90
2018-05-31T01:58:19.092Z,16.00
2018-05-31T01:59:19.124Z,15.30
2018-05-31T02:00:19.121Z,16.60
2018-05-31T02:01:19.135Z,15.90
2018-05-31T02:02:19.154Z,16.30
2018-05-31T02:03:19.202Z,16.50
2018-05-31T02:04:19.196Z,16.60
2018-05-31T02:05:19.217Z,16.50
2018-05-31T02:06:19.239Z,15.50
2018-05-31T02:07:19.256Z,16.00
2018-05-31T02:08:19.285Z,16.40
2018-05-31T02:09:19.298Z,15.90
2018-05-31T02:10:19.340Z,16.40
2018-05-31T02:11:19.357Z,16.70
2018-05-31T02:12:19.367Z,15.90
2018-05-31T02:13:19.391Z,15.90
2018-05-31T02:14:19.406Z,15.10
2018-05-31T02:15:19.427Z,14.50
2018-05-31T02:16:19.450Z,14.50
2018-05-31T02:17:19.472Z,15.30
2018-05-31T02:18:19.496Z,15.90
2018-05-31T02:19:19.533Z,16.20
2018-05-31T02:20:19.551Z,15.00
2018-05-31T02:21:19.559Z,15.50
2018-05-31T02:22:19.587Z,15.40
2018-05-31T02:23:19.601Z,15.70
2018-05-31T02:24:19.624Z,16.10
2018-05-31T02:25:19.644Z,15.60
2018-05-31T02:26:19.674Z,15.90
2018-05-31T02:27:19.681Z,14.90
2018-05-31T02:28:19.706Z,15.20
2018-05-31T02:29:19.735Z,15.50
2018-05-31T02:30:19.747Z,15.00
2018-05-31T02:31:19.775Z,15.00
2018-05-31T02:32:19.797Z,14.90
2018-05-31T02:33:19.820Z,15.80
2018-05-31T02:34:19.841Z,15.90
2018-05-31T02:35:19.868Z,15.10
2018-05-31T02:36:19.880Z,16.50
2018-05-31T02:37:19.899Z,16.90
2018-05-31T02:38:19.920Z,16.50
2018-05-31T02:39:19.937Z,16.20
2018-05-31T02:40:19.959Z,15.60
2018-05-31T02:41:19.983Z,15.40
2018-05-31T02:42:20.008Z,14.80
2018-05-31T02:43:20.028Z,15.60
2018-05-31T02:44:20.043Z,15.50
2018-05-31T02:45:20.064Z,16.40
2018-05-31T02:46:20.091Z,16.50
2018-05-31T02:47:20.119Z,15.50
2018-05-31T02:48:20.128Z,16.30
2018-05-31T02:49:20.152Z,16.60
2018-05-31T02:50:20.175Z,16.30
2018-05-31T02:51:20.197Z,16.10
2018-05-31T02:52:20.214Z,17.10
2018-05-31T02:53:20.241Z,15.20
2018-05-31T02:54:20.258Z,15.80
2018-05-31T02:55:20.276Z,17.00
2018-05-31T02:56:20.297Z,15.80
2018-05-31T02:57:20.321Z,16.60
2018-05-31T02:58:20.344Z,15.70
2018-05-31T02:59:20.359Z,15.70
2018-05-31T03:00:20.388Z,15.90
2018-05-31T03:01:20.405Z,16.70
2018-05-31T03:02:20.424Z,16.70
2018-05-31T03:03:20.452Z,15.20
2018-05-31T03:04:20.474Z,15.40
2018-05-31T03:05:20.488Z,16.40
2018-05-31T03:06:20.514Z,15.20
2018-05-31T03:07:20.533Z,15.20
2018-05-31T03:08:20.553Z,15.70
2018-05-31T03:09:20.576Z,14.40
2018-05-31T03:10:20.622Z,14.60
2018-05-31T03:11:20.619Z,15.60
2018-05-31T03:12:20.634Z,15.00
2018-05-31T03:13:20.664Z,14.60
2018-05-31T03:14:20.686Z,14.80
2018-05-31T03:15:20.697Z,14.70
2018-05-31T03:16:20.720Z,15.50
2018-05-31T03:17:20.746Z,15.70
2018-05-31T03:18:20.762Z,16.00
2018-05-31T03:19:20.783Z,15.20
2018-05-31T03:20:20.806Z,15.70
2018-05-31T03:21:20.826Z,15.80
2018-05-31T03:22:20.849Z,15.20
2018-05-31T03:23:20.889Z,15.40
2018-05-31T03:24:20.890Z,14.60
2018-05-31T03:25:20.919Z,14.80
2018-05-31T03:26:20.935Z,14.90
2018-05-31T03:27:20.952Z,14.60
2018-05-31T03:28:20.973Z,13.70
2018-05-31T03:29:20.999Z,15.20
2018-05-31T03:30:21.018Z,16.00
2018-05-31T03:31:21.049Z,14.80
2018-05-31T03:32:21.060Z,15.50
2018-05-31T03:33:21.082Z,15.30
2018-05-31T03:34:21.107Z,15.30
2018-05-31T03:35:21.121Z,15.60
2018-05-31T03:36:21.154Z,15.10
2018-05-31T03:37:21.166Z,16.30
2018-05-31T03:38:21.192Z,15.90
2018-05-31T03:39:21.205Z,16.60
2018-05-31T03:40:21.241Z,15.50
2018-05-31T03:41:21.249Z,14.10
2018-05-31T03:42:21.276Z,14.20
2018-05-31T03:43:21.290Z,14.30
2018-05-31T03:44:21.323Z,14.40
2018-05-31T03:45:21.337Z,14.70
2018-05-31T03:46:21.372Z,15.60
2018-05-31T03:47:21.380Z,14.90
2018-05-31T03:48:21.416Z,15.50
2018-05-31T03:49:21.478Z,14.80
2018-05-31T03:50:21.443Z,14.50
2018-05-31T03:51:21.480Z,14.70
2018-05-31T03:52:21.479Z,14.40
2018-05-31T03:53:21.574Z,14.30
2018-05-31T03:54:21.580Z,14.60
2018-05-31T03:55:21.562Z,14.70
2018-05-31T03:56:21.570Z,14.60
2018-05-31T03:57:21.604Z,15.00
2018-05-31T03:58:21.614Z,15.10
2018-05-31T03:59:21.631Z,15.10
2018-05-31T04:00:21.650Z,16.50
2018-05-31T04:01:21.672Z,15.70
2018-05-31T04:02:21.703Z,15.60
2018-05-31T04:03:21.718Z,16.10
2018-05-31T04:04:21.738Z,16.00
2018-05-31T04:05:21.783Z,15.90
2018-05-31T04:06:21.786Z,15.00
2018-05-31T04:07:21.821Z,14.90
2018-05-31T04:08:21.838Z,14.90
2018-05-31T04:09:21.844Z,14.60
2018-05-31T04:10:21.871Z,14.80
2018-05-31T04:11:21.886Z,14.60
2018-05-31T04:12:21.910Z,13.70
2018-05-31T04:13:21.934Z,13.60
2018-05-31T04:14:21.954Z,15.30
2018-05-31T04:15:21.971Z,15.80
2018-05-31T04:16:21.998Z,15.00
2018-05-31T04:17:22.018Z,14.20
2018-05-31T04:18:22.040Z,15.80
2018-05-31T04:19:22.058Z,14.60
2018-05-31T04:20:22.090Z,14.40
2018-05-31T04:21:22.098Z,14.40
2018-05-31T04:22:22.119Z,14.40
2018-05-31T04:23:22.141Z,15.20
2018-05-31T04:24:22.170Z,15.10
2018-05-31T04:25:22.185Z,15.00
2018-05-31T04:26:22.233Z,14.00
2018-05-31T04:27:22.232Z,14.50
2018-05-31T04:28:22.258Z,14.20
2018-05-31T04:29:22.276Z,15.80
2018-05-31T04:30:22.292Z,15.60
2018-05-31T04:31:22.310Z,15.60
2018-05-31T04:32:22.338Z,15.60
2018-05-31T04:33:22.361Z,14.20
2018-05-31T04:34:22.382Z,13.80
2018-05-31T04:35:22.401Z,14.30
2018-05-31T04:36:22.430Z,14.90
2018-05-31T04:37:22.446Z,14.10
2018-05-31T04:38:22.463Z,15.60
2018-05-31T04:39:22.487Z,14.40
2018-05-31T04:40:22.512Z,13.90
2018-05-31T04:41:22.549Z,14.50
2018-05-31T04:42:22.609Z,15.10
2018-05-31T04:43:22.605Z,14.70
2018-05-31T04:44:22.595Z,16.10
2018-05-31T04:45:22.628Z,17.90
2018-05-31T04:46:22.655Z,16.70
2018-05-31T04:47:22.667Z,16.00
2018-05-31T04:48:22.684Z,16.50
2018-05-31T04:49:22.703Z,15.70
2018-05-31T04:50:22.727Z,16.50
2018-05-31T04:51:22.755Z,16.50
2018-05-31T04:52:22.784Z,15.70
2018-05-31T04:53:22.796Z,15.60
2018-05-31T04:54:22.828Z,16.00
2018-05-31T04:55:22.844Z,15.10
2018-05-31T04:56:22.868Z,14.50
2018-05-31T04:57:22.889Z,14.70
2018-05-31T04:58:22.928Z,14.50
2018-05-31T04:59:22.946Z,13.90
2018-05-31T05:00:22.959Z,13.40
2018-05-31T05:01:22.981Z,13.60
2018-05-31T05:02:23.031Z,14.10
2018-05-31T05:03:23.043Z,13.60
2018-05-31T05:04:23.065Z,13.10
2018-05-31T05:05:23.094Z,12.80
2018-05-31T05:06:23.117Z,12.80
2018-05-31T05:07:23.137Z,12.60
2018-05-31T05:08:23.168Z,13.30
2018-05-31T05:09:23.203Z,12.80
2018-05-31T05:10:23.228Z,11.50
2018-05-31T05:11:23.243Z,12.70
2018-05-31T05:12:23.273Z,12.50
2018-05-31T05:13:23.296Z,12.30
2018-05-31T05:14:23.326Z,11.80
2018-05-31T05:15:23.351Z,12.80
2018-05-31T05:16:23.372Z,12.50
2018-05-31T05:17:23.419Z,12.20
2018-05-31T05:18:23.440Z,13.00
2018-05-31T05:19:23.468Z,12.60
2018-05-31T05:20:23.482Z,11.70
2018-05-31T05:21:23.515Z,11.60
2018-05-31T05:22:23.552Z,11.60
2018-05-31T05:23:23.567Z,12.10
2018-05-31T05:24:23.613Z,11.60
2018-05-31T05:25:23.622Z,11.10
2018-05-31T05:26:23.656Z,11.40
2018-05-31T05:27:23.692Z,11.40
2018-05-31T05:28:23.713Z,11.90
2018-05-31T05:29:23.746Z,11.60
2018-05-31T05:30:23.778Z,11.60
2018-05-31T05:31:23.792Z,11.60
2018-05-31T05:32:23.821Z,11.80
2018-05-31T05:33:23.843Z,11.70
2018-05-31T05:34:23.900Z,11.50
2018-05-31T05:35:23.913Z,11.90
2018-05-31T05:36:23.931Z,12.40
2018-05-31T05:37:23.960Z,12.20
2018-05-31T05:38:23.998Z,11.70
2018-05-31T05:39:24.014Z,12.10
2018-05-31T05:40:24.048Z,11.60
2018-05-31T05:41:24.076Z,11.40
2018-05-31T05:42:24.124Z,11.40
2018-05-31T05:43:24.131Z,12.20
2018-05-31T05:44:24.173Z,11.50
2018-05-31T05:45:24.186Z,11.90
2018-05-31T05:46:24.233Z,11.30
2018-05-31T05:47:24.256Z,11.10
2018-05-31T05:48:24.276Z,10.60
2018-05-31T05:49:24.307Z,10.90
2018-05-31T05:50:24.345Z,10.80
2018-05-31T05:51:24.396Z,10.90
2018-05-31T05:52:24.401Z,11.70
2018-05-31T05:53:24.429Z,10.40
2018-05-31T05:54:24.453Z,12.00
2018-05-31T05:55:24.490Z,10.80
2018-05-31T05:56:24.559Z,10.90
2018-05-31T05:57:24.546Z,11.00
2018-05-31T05:58:24.573Z,10.60
2018-05-31T05:59:24.604Z,10.60
2018-05-31T06:00:24.656Z,11.00
2018-05-31T06:01:24.681Z,11.10
2018-05-31T06:02:24.703Z,10.60
2018-05-31T06:03:24.731Z,10.30
2018-05-31T06:04:24.817Z,10.70
2018-05-31T06:05:24.806Z,10.30
2018-05-31T06:06:24.817Z,10.00
2018-05-31T06:07:24.848Z,10.20
2018-05-31T06:08:24.880Z,9.10
2018-05-31T06:09:24.914Z,9.60
2018-05-31T06:10:24.983Z,9.90
2018-05-31T06:11:24.972Z,9.60
2018-05-31T06:12:25.000Z,9.90
2018-05-31T06:13:25.037Z,9.80
2018-05-31T06:14:25.071Z,9.80
2018-05-31T06:15:25.122Z,9.30
2018-05-31T06:16:25.152Z,9.60
2018-05-31T06:17:25.160Z,10.10
2018-05-31T06:18:25.203Z,9.00
2018-05-31T06:19:25.237Z,9.50
2018-05-31T06:20:25.261Z,9.80
2018-05-31T06:21:25.291Z,9.40
2018-05-31T06:22:25.314Z,10.40
2018-05-31T06:23:25.347Z,9.90
2018-05-31T06:24:25.388Z,9.20
2018-05-31T06:25:25.413Z,9.80
2018-05-31T06:26:25.504Z,9.90
2018-05-31T06:27:25.474Z,9.90
2018-05-31T06:28:25.514Z,9.50
2018-05-31T06:29:25.534Z,9.50
2018-05-31T06:30:25.565Z,9.10
2018-05-31T06:31:25.623Z,9.30
2018-05-31T06:32:25.637Z,9.30
2018-05-31T06:33:25.669Z,9.20
2018-05-31T06:34:25.697Z,9.30
2018-05-31T06:35:25.730Z,8.60
2018-05-31T06:36:25.783Z,8.70
2018-05-31T06:37:25.836Z,8.80
2018-05-31T06:38:25.824Z,8.90
2018-05-31T06:39:25.855Z,8.50
2018-05-31T06:40:25.886Z,9.10
2018-05-31T06:41:25.924Z,8.50
2018-05-31T06:42:25.955Z,8.80
2018-05-31T06:43:26.008Z,8.60
2018-05-31T06:44:26.019Z,8.70
2018-05-31T06:45:26.042Z,9.20
2018-05-31T06:46:26.095Z,8.80
2018-05-31T06:47:26.111Z,8.90
2018-05-31T06:48:26.138Z,8.50
2018-05-31T06:49:26.184Z,8.40
2018-05-31T06:50:26.202Z,9.10
2018-05-31T06:51:26.236Z,8.80
2018-05-31T06:52:26.279Z,8.80
2018-05-31T06:53:26.308Z,9.20
2018-05-31T06:54:26.388Z,8.70
2018-05-31T06:55:26.374Z,8.80
2018-05-31T06:56:26.395Z,9.20
2018-05-31T06:57:26.426Z,9.40
2018-05-31T06:58:26.455Z,9.20
2018-05-31T06:59:26.495Z,8.50
2018-05-31T07:00:26.532Z,8.80
2018-05-31T07:01:26.560Z,9.30
2018-05-31T07:02:26.586Z,8.80
2018-05-31T07:03:26.615Z,8.80
2018-05-31T07:04:26.650Z,9.10
2018-05-31T07:05:26.680Z,9.30
2018-05-31T07:06:26.719Z,8.90
2018-05-31T07:07:26.739Z,9.20
2018-05-31T07:08:26.786Z,9.50
2018-05-31T07:09:26.812Z,9.30
2018-05-31T07:10:26.844Z,9.70
2018-05-31T07:11:26.874Z,9.00
2018-05-31T07:12:26.911Z,8.50
2018-05-31T07:13:26.933Z,8.20
2018-05-31T07:14:26.977Z,9.20
2018-05-31T07:15:26.995Z,8.60
2018-05-31T07:16:27.045Z,8.90
2018-05-31T07:17:27.061Z,9.10
2018-05-31T07:18:27.093Z,9.00
2018-05-31T07:19:27.132Z,8.80
2018-05-31T07:20:27.155Z,8.90
2018-05-31T07:21:27.195Z,8.90
2018-05-31T07:22:27.218Z,8.30
2018-05-31T07:23:27.256Z,8.50
2018-05-31T07:24:27.290Z,8.30
2018-05-31T07:25:27.322Z,9.30
2018-05-31T07:26:27.348Z,9.50
2018-05-31T07:27:27.387Z,8.90
2018-05-31T07:28:27.418Z,8.60
2018-05-31T07:29:27.453Z,8.50
2018-05-31T07:30:27.487Z,7.90
2018-05-31T07:31:27.534Z,8.10
2018-05-31T07:32:27.547Z,8.20
2018-05-31T07:33:27.580Z,7.80
2018-05-31T07:34:27.619Z,7.70
2018-05-31T07:35:27.644Z,7.80
2018-05-31T07:36:27.677Z,7.80
2018-05-31T07:37:27.706Z,8.00
2018-05-31T07:38:27.745Z,7.30
2018-05-31T07:39:27.780Z,7.70
2018-05-31T07:40:27.801Z,8.10
2018-05-31T07:41:27.843Z,7.70
2018-05-31T07:42:27.872Z,7.30
2018-05-31T07:43:27.901Z,7.10
2018-05-31T07:44:27.942Z,6.80
2018-05-31T07:45:28.000Z,6.90
2018-05-31T07:46:28.017Z,6.50
2018-05-31T07:47:28.038Z,6.50
2018-05-31T07:48:28.066Z,6.40
2018-05-31T07:49:28.099Z,5.60
2018-05-31T07:50:28.134Z,5.60
2018-05-31T07:51:28.171Z,5.90
2018-05-31T07:52:28.198Z,6.20
2018-05-31T07:53:28.230Z,6.20
2018-05-31T07:54:28.265Z,6.00
2018-05-31T07:55:28.303Z,6.00
2018-05-31T07:56:28.322Z,5.90
2018-05-31T07:57:28.367Z,5.40
2018-05-31T07:58:28.393Z,5.60
2018-05-31T07:59:28.434Z,5.00
2018-05-31T08:00:28.465Z,5.40
2018-05-31T08:01:28.498Z,5.10
2018-05-31T08:02:28.520Z,5.40
2018-05-31T08:03:28.560Z,5.30
2018-05-31T08:04:28.590Z,6.20
2018-05-31T08:05:28.632Z,5.10
2018-05-31T08:06:28.663Z,5.30
2018-05-31T08:07:28.694Z,4.90
2018-05-31T08:08:28.729Z,5.30
2018-05-31T08:09:28.761Z,5.30
2018-05-31T08:10:28.792Z,5.30
2018-05-31T08:11:28.816Z,5.20
2018-05-31T08:12:28.853Z,5.30
2018-05-31T08:13:28.897Z,5.30
2018-05-31T08:14:28.911Z,4.60
2018-05-31T08:15:28.940Z,5.00
2018-05-31T08:16:28.978Z,5.00
2018-05-31T08:17:29.004Z,5.10
2018-05-31T08:18:29.047Z,4.90
2018-05-31T08:19:29.081Z,5.30
2018-05-31T08:20:29.115Z,5.10
2018-05-31T08:21:29.142Z,5.20
2018-05-31T08:22:29.167Z,5.20
2018-05-31T08:23:29.204Z,5.20
2018-05-31T08:24:29.232Z,5.20
2018-05-31T08:25:29.265Z,5.20
2018-05-31T08:26:29.299Z,6.90
2018-05-31T08:27:29.323Z,7.00
2018-05-31T08:28:29.383Z,6.40
2018-05-31T08:29:29.388Z,7.10
2018-05-31T08:30:29.436Z,6.80
2018-05-31T08:31:29.484Z,7.20
2018-05-31T08:32:29.487Z,7.20
2018-05-31T08:33:29.510Z,7.40
2018-05-31T08:34:29.544Z,6.80
2018-05-31T08:35:29.571Z,7.50
2018-05-31T08:36:29.598Z,7.10
2018-05-31T08:37:29.631Z,7.90
2018-05-31T08:38:29.661Z,7.60
2018-05-31T08:39:29.690Z,7.70
2018-05-31T08:40:29.719Z,7.30
2018-05-31T08:41:29.750Z,7.70
2018-05-31T08:42:29.774Z,7.60
2018-05-31T08:43:29.805Z,7.80
2018-05-31T08:44:29.874Z,8.60
2018-05-31T08:45:29.864Z,8.30
2018-05-31T08:46:29.897Z,7.80
2018-05-31T08:47:29.925Z,8.00
2018-05-31T08:48:29.954Z,8.30
2018-05-31T08:49:29.975Z,7.30
2018-05-31T08:50:30.010Z,8.30
2018-05-31T08:51:30.041Z,8.40
2018-05-31T08:52:30.065Z,8.00
2018-05-31T08:53:30.090Z,7.70
2018-05-31T08:54:30.126Z,8.10
2018-05-31T08:55:30.154Z,7.80
2018-05-31T08:56:30.181Z,8.30
2018-05-31T08:57:30.209Z,7.90
2018-05-31T08:58:30.231Z,8.30
2018-05-31T08:59:30.254Z,8.10
2018-05-31T09:00:30.286Z,7.80
2018-05-31T09:01:30.315Z,8.10
2018-05-31T09:02:30.342Z,8.40
2018-05-31T09:03:30.366Z,9.00
2018-05-31T09:04:30.396Z,8.60
2018-05-31T09:05:30.424Z,8.60
2018-05-31T09:06:30.452Z,8.10
2018-05-31T09:07:30.484Z,8.70
2018-05-31T09:08:30.508Z,8.30
2018-05-31T09:09:30.601Z,8.10
2018-05-31T09:10:30.560Z,7.90
2018-05-31T09:11:30.590Z,8.70
2018-05-31T09:12:30.613Z,8.10
2018-05-31T09:13:30.648Z,8.70
2018-05-31T09:14:30.674Z,7.60
2018-05-31T09:15:30.692Z,8.60
2018-05-31T09:16:30.719Z,7.60
2018-05-31T09:17:30.755Z,7.20
2018-05-31T09:18:30.774Z,7.50
2018-05-31T09:19:30.810Z,7.50
2018-05-31T09:20:30.828Z,7.30
2018-05-31T09:21:30.860Z,7.60
2018-05-31T09:22:30.885Z,8.10
2018-05-31T09:23:30.914Z,9.40
2018-05-31T09:24:30.943Z,8.60
2018-05-31T09:25:30.969Z,9.70
2018-05-31T09:26:31.030Z,9.30
2018-05-31T09:27:31.031Z,9.80
2018-05-31T09:28:31.068Z,9.40
2018-05-31T09:29:31.074Z,10.10
2018-05-31T09:30:31.106Z,9.80
2018-05-31T09:31:31.127Z,9.90
2018-05-31T09:32:31.157Z,8.70
2018-05-31T09:33:31.185Z,8.90
2018-05-31T09:34:31.213Z,8.80
2018-05-31T09:35:31.233Z,9.00
2018-05-31T09:36:31.268Z,8.90
2018-05-31T09:37:31.288Z,8.60
2018-05-31T09:38:31.324Z,8.10
2018-05-31T09:39:31.341Z,8.20
2018-05-31T09:40:31.370Z,8.50
2018-05-31T09:41:31.413Z,8.70
2018-05-31T09:42:31.441Z,8.70
2018-05-31T09:43:31.450Z,7.80
2018-05-31T09:44:31.485Z,9.00
2018-05-31T09:45:31.501Z,8.70
2018-05-31T09:46:31.564Z,9.60
2018-05-31T09:47:31.567Z,8.50
2018-05-31T09:48:31.592Z,8.80
2018-05-31T09:49:31.617Z,8.50
2018-05-31T09:50:31.640Z,8.80
2018-05-31T09:51:31.671Z,9.30
2018-05-31T09:52:31.695Z,10.10
2018-05-31T09:53:31.717Z,8.80
2018-05-31T09:54:31.756Z,9.40
2018-05-31T09:55:31.785Z,9.20
2018-05-31T09:56:31.803Z,8.60
2018-05-31T09:57:31.838Z,8.30
2018-05-31T09:58:31.855Z,9.00
2018-05-31T09:59:31.878Z,9.20
2018-05-31T10:00:31.915Z,8.30
2018-05-31T10:01:31.934Z,9.10
2018-05-31T10:02:31.956Z,8.00
2018-05-31T10:03:31.988Z,8.50
2018-05-31T10:04:32.014Z,8.50
2018-05-31T10:05:32.044Z,9.30
2018-05-31T10:06:32.072Z,9.60
2018-05-31T10:07:32.100Z,9.30
2018-05-31T10:08:32.120Z,9.60
2018-05-31T10:09:32.164Z,9.10
2018-05-31T10:10:32.178Z,9.20
2018-05-31T10:11:32.208Z,8.30
2018-05-31T10:12:32.229Z,8.80
2018-05-31T10:13:32.256Z,8.60
2018-05-31T10:14:32.283Z,9.20
2018-05-31T10:15:32.314Z,9.00
2018-05-31T10:16:32.335Z,9.10
2018-05-31T10:17:32.360Z,8.70
2018-05-31T10:18:32.393Z,8.90
2018-05-31T10:19:32.422Z,8.90
2018-05-31T10:20:32.446Z,8.80
2018-05-31T10:21:32.472Z,9.00
2018-05-31T10:22:32.500Z,8.40
2018-05-31T10:23:32.530Z,8.30
2018-05-31T10:24:32.553Z,7.90
2018-05-31T10:25:32.579Z,7.90
2018-05-31T10:26:32.602Z,8.10
2018-05-31T10:27:32.623Z,8.30
2018-05-31T10:28:32.677Z,8.50
2018-05-31T10:29:32.681Z,8.40
2018-05-31T10:30:32.705Z,7.90
2018-05-31T10:31:32.740Z,8.70
2018-05-31T10:32:32.773Z,8.20
2018-05-31T10:33:32.815Z,9.20
2018-05-31T10:34:32.824Z,8.50
2018-05-31T10:35:32.843Z,7.90
2018-05-31T10:36:32.873Z,8.20
2018-05-31T10:37:32.895Z,8.00
2018-05-31T10:38:32.923Z,8.50
2018-05-31T10:39:32.978Z,8.20
2018-05-31T10:40:32.985Z,8.30
2018-05-31T10:41:33.015Z,8.20
2018-05-31T10:42:33.043Z,8.40
2018-05-31T10:43:33.064Z,7.90
2018-05-31T10:44:33.086Z,8.10
2018-05-31T10:45:33.118Z,8.40
2018-05-31T10:46:33.189Z,8.50
2018-05-31T10:47:33.168Z,8.70
2018-05-31T10:48:33.200Z,8.80
2018-05-31T10:49:33.222Z,8.10
2018-05-31T10:50:33.253Z,8.50
2018-05-31T10:51:33.278Z,8.70
2018-05-31T10:52:33.305Z,8.30
2018-05-31T10:53:33.340Z,8.80
2018-05-31T10:54:33.358Z,9.00
2018-05-31T10:55:33.399Z,8.30
2018-05-31T10:56:33.416Z,8.40
2018-05-31T10:57:33.450Z,8.30
2018-05-31T10:58:33.468Z,8.50
2018-05-31T10:59:33.497Z,8.40
2018-05-31T11:00:33.541Z,8.10
2018-05-31T11:01:33.546Z,7.80
2018-05-31T11:02:33.589Z,8.10
2018-05-31T11:03:33.610Z,7.90
2018-05-31T11:04:33.632Z,7.90
2018-05-31T11:05:33.656Z,7.90
2018-05-31T11:06:33.686Z,7.90
2018-05-31T11:07:33.719Z,8.20
2018-05-31T11:08:33.801Z,8.00
2018-05-31T11:09:33.763Z,7.60
2018-05-31T11:10:33.800Z,8.50
2018-05-31T11:11:33.818Z,7.50
2018-05-31T11:12:33.846Z,7.90
2018-05-31T11:13:33.875Z,8.10
2018-05-31T11:14:33.906Z,8.00
2018-05-31T11:15:33.928Z,7.90
2018-05-31T11:16:33.988Z,8.30
2018-05-31T11:17:33.990Z,8.30
2018-05-31T11:18:34.008Z,8.10
2018-05-31T11:19:34.046Z,7.80
2018-05-31T11:20:34.065Z,7.50
2018-05-31T11:21:34.090Z,7.70
2018-05-31T11:22:34.130Z,7.90
2018-05-31T11:23:34.142Z,7.90
2018-05-31T11:24:34.172Z,7.70
2018-05-31T11:25:34.211Z,7.60
2018-05-31T11:26:34.244Z,7.90
2018-05-31T11:27:34.256Z,7.70
2018-05-31T11:28:34.282Z,7.40
2018-05-31T11:29:34.321Z,7.40
2018-05-31T11:30:34.335Z,7.90
2018-05-31T11:31:34.358Z,8.30
2018-05-31T11:32:34.401Z,7.10
2018-05-31T11:33:34.418Z,7.80
2018-05-31T11:34:34.445Z,7.60
2018-05-31T11:35:34.480Z,7.70
2018-05-31T11:36:34.497Z,7.30
2018-05-31T11:37:34.529Z,7.60
2018-05-31T11:38:34.560Z,7.10
2018-05-31T11:39:34.582Z,7.50
2018-05-31T11:40:34.609Z,7.40
2018-05-31T11:41:34.663Z,6.90
2018-05-31T11:42:34.665Z,7.90
2018-05-31T11:43:34.695Z,7.40
2018-05-31T11:44:34.735Z,7.70
2018-05-31T11:45:34.754Z,7.20
2018-05-31T11:46:34.773Z,7.50
2018-05-31T11:47:34.807Z,7.70
2018-05-31T11:48:34.831Z,7.50
2018-05-31T11:49:34.869Z,7.70
2018-05-31T11:50:34.884Z,7.60
2018-05-31T11:51:34.919Z,7.40
2018-05-31T11:52:34.945Z,7.50
2018-05-31T11:53:34.966Z,6.90
2018-05-31T11:54:34.998Z,7.40
2018-05-31T11:55:35.024Z,7.00
2018-05-31T11:56:35.051Z,7.30
2018-05-31T11:57:35.084Z,7.10
2018-05-31T11:58:35.107Z,7.20
2018-05-31T11:59:35.150Z,7.70
2018-05-31T12:00:35.217Z,7.50
2018-05-31T12:01:35.231Z,7.90
2018-05-31T12:02:35.212Z,7.80
2018-05-31T12:03:35.242Z,7.20
2018-05-31T12:04:35.273Z,7.70
2018-05-31T12:05:35.309Z,7.50
2018-05-31T12:06:35.323Z,7.60
2018-05-31T12:07:35.362Z,7.60
2018-05-31T12:08:35.378Z,8.00
2018-05-31T12:09:35.414Z,7.60
2018-05-31T12:10:35.434Z,8.20
2018-05-31T12:11:35.474Z,8.20
2018-05-31T12:12:35.514Z,8.30
2018-05-31T12:13:35.509Z,7.90
2018-05-31T12:14:35.544Z,8.90
2018-05-31T12:15:35.567Z,8.70
2018-05-31T12:16:35.597Z,8.80
2018-05-31T12:17:35.679Z,8.00
2018-05-31T12:18:35.658Z,8.30
2018-05-31T12:19:35.683Z,8.60
2018-05-31T12:20:35.699Z,7.70
2018-05-31T12:21:35.730Z,7.90
2018-05-31T12:22:35.755Z,8.10
2018-05-31T12:23:35.792Z,8.00
2018-05-31T12:24:35.809Z,7.90
2018-05-31T12:25:35.896Z,7.70
2018-05-31T12:26:35.871Z,7.50
2018-05-31T12:27:35.896Z,7.70
2018-05-31T12:28:35.920Z,7.70
2018-05-31T12:29:35.948Z,7.60
2018-05-31T12:30:35.979Z,8.10
2018-05-31T12:31:35.997Z,8.00
2018-05-31T12:32:36.035Z,7.60
2018-05-31T12:33:36.058Z,7.80
2018-05-31T12:34:36.084Z,8.10
2018-05-31T12:35:36.113Z,7.90
2018-05-31T12:36:36.151Z,8.80
2018-05-31T12:37:36.164Z,8.00
2018-05-31T12:38:36.189Z,8.20
2018-05-31T12:39:36.213Z,8.10
2018-05-31T12:40:36.247Z,8.20
2018-05-31T12:41:36.271Z,8.00
2018-05-31T12:42:36.299Z,8.40
2018-05-31T12:43:36.327Z,8.30
2018-05-31T12:44:36.359Z,7.90
2018-05-31T12:45:36.383Z,8.40
2018-05-31T12:46:36.413Z,8.30
2018-05-31T12:47:36.428Z,7.80
2018-05-31T12:48:36.465Z,8.00
2018-05-31T12:49:36.488Z,7.40
2018-05-31T12:50:36.514Z,8.30
2018-05-31T12:51:36.533Z,8.10
2018-05-31T12:52:36.567Z,7.60
2018-05-31T12:53:36.600Z,7.30
2018-05-31T12:54:36.622Z,8.00
2018-05-31T12:55:36.648Z,7.50
2018-05-31T12:56:36.677Z,7.60
2018-05-31T12:57:36.705Z,7.60
2018-05-31T12:58:36.731Z,7.80
2018-05-31T12:59:36.765Z,7.70
2018-05-31T13:00:36.778Z,7.70
2018-05-31T13:01:36.808Z,7.90
2018-05-31T13:02:36.838Z,7.90
2018-05-31T13:03:36.859Z,7.20
2018-05-31T13:04:36.882Z,7.80
2018-05-31T13:05:36.989Z,7.90
2018-05-31T13:06:36.942Z,7.70